createdAt,value
2023-03-11T00:02:22.492Z,58.75
2023-03-11T00:04:50.155Z,66.79
2023-03-11T00:07:17.819Z,93.76
2023-03-11T00:09:46.760Z,100.00
2023-03-11T00:12:14.393Z,80.85
2023-03-11T00:14:42.015Z,99.05
2023-03-11T00:17:09.626Z,76.96
2023-03-11T00:19:37.262Z,81.27
2023-03-11T00:22:04.868Z,100.00
2023-03-11T00:24:32.449Z,100.00
2023-03-11T00:27:01.411Z,93.27
2023-03-11T00:29:29.098Z,100.00
2023-03-11T00:31:56.696Z,100.00
2023-03-11T00:34:25.676Z,100.00
2023-03-11T00:36:54.737Z,100.00
2023-03-11T00:39:23.201Z,100.00
2023-03-11T00:41:51.772Z,100.00
2023-03-11T00:44:20.735Z,100.00
2023-03-11T00:46:48.361Z,100.00
2023-03-11T00:49:15.974Z,100.00
2023-03-11T00:51:44.824Z,100.00
2023-03-11T00:54:12.414Z,100.00
2023-03-11T00:56:41.653Z,100.00
2023-03-11T00:59:09.388Z,100.00
2023-03-11T01:01:38.428Z,100.00
2023-03-11T01:04:06.394Z,95.77
2023-03-11T01:06:44.779Z,100.00
2023-03-11T01:09:12.971Z,100.00
2023-03-11T01:11:40.658Z,100.00
2023-03-11T01:14:09.228Z,100.00
2023-03-11T01:16:38.210Z,100.00
2023-03-11T01:19:05.804Z,100.00
2023-03-11T01:21:33.452Z,100.00
2023-03-11T01:24:01.096Z,100.00
2023-03-11T01:26:28.732Z,100.00
2023-03-11T01:28:56.873Z,100.00
2023-03-11T01:31:24.728Z,100.00
2023-03-11T01:33:53.862Z,100.00
2023-03-11T01:36:21.521Z,100.00
2023-03-11T01:38:49.223Z,100.00
2023-03-11T01:41:16.849Z,100.00
2023-03-11T01:43:49.270Z,100.00
2023-03-11T01:46:21.112Z,100.00
2023-03-11T01:48:49.913Z,100.00
2023-03-11T01:51:20.921Z,100.00
2023-03-11T01:53:48.628Z,100.00
2023-03-11T01:56:16.413Z,100.00
2023-03-11T01:58:45.592Z,100.00
2023-03-11T02:01:13.518Z,100.00
2023-03-11T02:03:41.982Z,100.00
2023-03-11T02:06:10.599Z,100.00
2023-03-11T02:08:39.676Z,100.00
2023-03-11T02:11:09.650Z,100.00
2023-03-11T02:13:37.276Z,100.00
2023-03-11T02:16:05.262Z,100.00
2023-03-11T02:18:33.142Z,100.00
2023-03-11T02:21:03.867Z,100.00
2023-03-11T02:23:32.535Z,100.00
2023-03-11T02:26:02.887Z,100.00
2023-03-11T02:28:32.720Z,100.00
2023-03-11T02:31:00.495Z,100.00
2023-03-11T02:33:30.069Z,100.00
2023-03-11T02:35:58.326Z,100.00
2023-03-11T02:38:26.458Z,100.00
2023-03-11T02:40:56.631Z,100.00
2023-03-11T02:43:27.270Z,100.00
2023-03-11T02:45:56.268Z,92.48
2023-03-11T02:48:23.992Z,100.00
2023-03-11T02:50:51.643Z,100.00
2023-03-11T02:53:20.381Z,100.00
2023-03-11T02:55:48.155Z,100.00
2023-03-11T02:58:15.750Z,100.00
2023-03-11T03:00:43.432Z,100.00
2023-03-11T03:03:12.629Z,100.00
2023-03-11T03:05:41.196Z,88.73
2023-03-11T03:08:08.963Z,100.00
2023-03-11T03:10:36.600Z,100.00
2023-03-11T03:13:04.364Z,100.00
2023-03-11T03:15:32.452Z,100.00
2023-03-11T03:18:01.246Z,100.00
2023-03-11T03:20:30.268Z,100.00
2023-03-11T03:23:00.774Z,100.00
2023-03-11T03:25:31.626Z,100.00
2023-03-11T03:28:03.186Z,100.00
2023-03-11T03:30:34.024Z,100.00
2023-03-11T03:33:01.664Z,100.00
2023-03-11T03:35:31.724Z,100.00
2023-03-11T03:38:04.221Z,100.00
2023-03-11T03:40:32.707Z,100.00
2023-03-11T03:43:03.937Z,100.00
2023-03-11T03:45:33.141Z,100.00
2023-03-11T03:48:00.866Z,100.00
2023-03-11T03:50:34.254Z,100.00
2023-03-11T03:53:01.940Z,100.00
2023-03-11T03:55:29.691Z,100.00
2023-03-11T03:57:58.740Z,100.00
2023-03-11T04:00:30.482Z,100.00
2023-03-11T04:03:02.034Z,100.00
2023-03-11T04:05:39.639Z,100.00
2023-03-11T04:08:07.310Z,100.00
2023-03-11T04:10:35.696Z,93.76
2023-03-11T04:13:04.293Z,100.00
2023-03-11T04:15:32.940Z,100.00
2023-03-11T04:18:00.904Z,91.70
2023-03-11T04:20:28.642Z,100.00
2023-03-11T04:22:57.739Z,87.70
2023-03-11T04:25:25.900Z,100.00
2023-03-11T04:27:54.206Z,88.58
2023-03-11T04:30:22.928Z,70.94
2023-03-11T04:32:55.350Z,76.82
2023-03-11T04:35:23.556Z,100.00
2023-03-11T04:37:51.917Z,79.05
2023-03-11T04:40:21.636Z,82.33
2023-03-11T04:42:49.714Z,84.18
2023-03-11T04:45:18.447Z,76.25
2023-03-11T04:47:48.447Z,85.42
2023-03-11T04:50:16.784Z,74.78
2023-03-11T04:52:44.867Z,66.79
2023-03-11T04:55:13.803Z,74.64
2023-03-11T04:57:44.419Z,75.19
2023-03-11T05:00:15.611Z,80.60
2023-03-11T05:02:46.709Z,84.56
2023-03-11T05:05:14.494Z,69.60
2023-03-11T05:07:43.687Z,84.80
2023-03-11T05:10:13.342Z,81.19
2023-03-11T05:12:41.007Z,74.06
2023-03-11T05:15:10.620Z,82.11
2023-03-11T05:17:38.416Z,95.80
2023-03-11T05:20:07.950Z,100.00
2023-03-11T05:22:36.426Z,96.73
2023-03-11T05:25:04.142Z,100.00
2023-03-11T05:27:31.800Z,100.00
2023-03-11T05:29:59.441Z,100.00
2023-03-11T05:32:29.983Z,100.00
2023-03-11T05:34:57.686Z,90.43
2023-03-11T05:37:25.324Z,100.00
2023-03-11T05:39:54.254Z,100.00
2023-03-11T05:42:23.192Z,100.00
2023-03-11T05:44:53.946Z,100.00
2023-03-11T05:47:23.261Z,100.00
2023-03-11T05:49:52.574Z,100.00
2023-03-11T05:52:21.161Z,85.24
2023-03-11T05:54:50.326Z,100.00
2023-03-11T05:57:18.636Z,100.00
2023-03-11T05:59:46.370Z,97.10
2023-03-11T06:02:14.799Z,100.00
2023-03-11T06:04:42.807Z,95.51
2023-03-11T06:07:14.780Z,87.63
2023-03-11T06:09:44.561Z,83.52
2023-03-11T06:12:16.923Z,85.85
2023-03-11T06:14:55.459Z,85.67
2023-03-11T06:17:23.277Z,79.50
2023-03-11T06:19:51.050Z,80.39
2023-03-11T06:22:20.188Z,78.87
2023-03-11T06:24:47.852Z,96.69
2023-03-11T06:27:15.536Z,65.59
2023-03-11T06:29:43.315Z,75.23
2023-03-11T06:32:11.218Z,74.24
2023-03-11T06:34:38.831Z,94.95
2023-03-11T06:37:08.043Z,90.96
2023-03-11T06:39:37.218Z,72.89
2023-03-11T06:42:05.410Z,65.21
2023-03-11T06:44:33.026Z,79.28
2023-03-11T06:47:00.972Z,78.76
2023-03-11T06:49:29.574Z,71.83
2023-03-11T06:51:57.254Z,79.87
2023-03-11T06:54:25.222Z,75.45
2023-03-11T06:56:54.428Z,85.52
2023-03-11T06:59:24.855Z,74.51
2023-03-11T07:01:53.566Z,75.77
2023-03-11T07:04:21.517Z,80.35
2023-03-11T07:06:49.801Z,70.88
2023-03-11T07:09:25.054Z,64.09
2023-03-11T07:11:54.556Z,71.16
2023-03-11T07:14:29.485Z,71.77
2023-03-11T07:16:58.339Z,67.72
2023-03-11T07:19:41.009Z,70.76
2023-03-11T07:22:08.657Z,91.61
2023-03-11T07:24:36.494Z,69.99
2023-03-11T07:27:05.799Z,64.34
2023-03-11T07:29:33.598Z,63.09
2023-03-11T07:32:01.316Z,64.52
2023-03-11T07:34:28.970Z,62.99
2023-03-11T07:36:56.579Z,61.41
2023-03-11T07:39:24.261Z,59.98
2023-03-11T07:41:51.904Z,57.45
2023-03-11T07:44:21.121Z,62.74
2023-03-11T07:46:48.776Z,65.03
2023-03-11T07:49:16.625Z,56.18
2023-03-11T07:51:44.866Z,58.63
2023-03-11T07:54:12.759Z,59.29
2023-03-11T07:56:40.505Z,62.92
2023-03-11T07:59:08.212Z,56.55
2023-03-11T08:01:40.617Z,56.97
2023-03-11T08:04:09.184Z,54.46
2023-03-11T08:06:37.559Z,55.77
2023-03-11T08:09:05.892Z,58.92
2023-03-11T08:11:33.638Z,77.67
2023-03-11T08:14:01.255Z,71.95
2023-03-11T08:16:29.314Z,92.22
2023-03-11T08:18:58.411Z,95.72
2023-03-11T08:21:26.628Z,70.02
2023-03-11T08:23:54.361Z,68.43
2023-03-11T08:26:22.634Z,75.74
2023-03-11T08:28:50.647Z,77.91
2023-03-11T08:31:19.033Z,76.44
2023-03-11T08:33:49.959Z,78.58
2023-03-11T08:36:19.299Z,71.14
2023-03-11T08:38:46.976Z,61.13
2023-03-11T08:41:14.620Z,79.78
2023-03-11T08:43:42.899Z,73.63
2023-03-11T08:47:39.131Z,83.32
2023-03-11T08:50:07.692Z,100.00
2023-03-11T08:52:38.378Z,91.15
2023-03-11T08:55:08.865Z,85.43
2023-03-11T08:57:37.943Z,83.56
2023-03-11T09:00:07.209Z,94.29
2023-03-11T09:02:38.288Z,98.28
2023-03-11T09:05:06.897Z,97.87
2023-03-11T09:07:34.693Z,100.00
2023-03-11T09:10:02.588Z,82.93
2023-03-11T09:12:33.060Z,97.37
2023-03-11T09:15:00.930Z,100.00
2023-03-11T09:17:28.792Z,94.73
2023-03-11T09:19:58.518Z,80.17
2023-03-11T09:22:26.551Z,78.28
2023-03-11T09:24:54.402Z,65.93
2023-03-11T09:27:22.558Z,54.48
2023-03-11T09:29:50.454Z,58.12
2023-03-11T09:32:18.456Z,59.57
2023-03-11T09:34:46.421Z,55.10
2023-03-11T09:37:15.633Z,58.66
2023-03-11T09:39:43.403Z,54.40
